Etusivu
METAR-TAF:

METAR-TAF

Lentoasemat :

Orio al Serion lentoasema

Bergamo, Italia

Leveyspiiri: 45-40N, Pituuspiiri: 009-42E, korkeus merenpinnasta: 238 m

Tämänhetkinen sää

Tämä raportti tehtiin 34 minuuttia sitten, kello 02.50 UTC
Tuuli 4 kn pohjoisesta
Lämpötila 13°C
Kosteus 88%
Ilmanpaine 1021 hPa
Näkyvyys: 4000 m
utua

METAR: LIME 210250Z 36004KT 4000 BR NSC 13/11 Q1021 NOSIG

Aika: 05:24 (03:24 UTC)

Sääennuste

Tämä raportti tehtiin 4 tuntia ja 24 minuuttia sitten, kello 23.00 UTC
Ennuste voimassa 21. päivästä klo 00 UTC - 21. päivään klo 24 UTC
Tuuli 5 kn eri suunnista
Näkyvyys: 6000 m

TAF: LIME 202300Z 2100/2124 VRB05KT 6000 NSC

Säähavainnot ja -ennusteet yli 4000 lentoasemalta (METAR- ja TAF-raportit).

Käytössä olevat sääasemat on merkitty karttaan keltaisilla ja punaisilla pisteillä.

Aseta hiiri pisteen päälle nähdäksesi sääaseman nimen.

Klikkaa sitten nähdäksesi säähavainnot ja -ennusteet.

Kartan vaihtaminen: klikkaa mustalla rastilla varustettuja vihreitä pisteitä, niin voit zoomata sisään; viivalla varustettua vihreää pistettä, niin voit zoomata ulos tai vihreitä nuolia, niin pääset viereisille kartoille.


METAR-TAF: